ACT        NSW        VIC        QLD        SA        WA        TAS        NT        INFO        CALC            by VK5ZD

  Atmospheric Gas Attenuation - ITU Rec 676-11   --------------- db/100km ---------------
Station Date Time Temp RH % AH g/m3 Dew Point Wind Direction Speed kph Gust kph Barometer mB Rainfall Since 9am 24GHz 47GHz 76GHz 122GHz 134GHz 241GHz
Adelaide (West Terrace / Ngayirdapira) 05 12:10 19.2 67 11.05 12.9 30 33 1002.7 0 24.5 27.8 46.2 121.8 122.2 422.5
ADELAIDE AIRPORT 05 12:10 19.2 72 11.87 14 37 43 1002.7 0.6 26.3 29.2 49.6 130.8 133.2 461.0
Andamooka 05 09:00 27.7 42 11.24 13.8 37 1013.1 0 24.4 26.0 42.7 112.5 112.8 390.7
Arkaroola 05 09:00 33.9 69 25.77 27.5 0 1013.1 0 54.1 48.4 99.3 263.2 299.6 1041.9
Cape Borda 05 12:10 16.8 84 12.01 14.1 33 41 1001 0 26.8 30.2 51.7 136.3 139.3 481.8
Cape Jaffa 05 12:10 16.4 87 12.14 14.2 32 35 1013.1 1.2 27.0 31.0 53.1 140.0 143.2 495.3
Cape Willoughby 05 12:10 20.4 56 9.91 11.3 28 37 1013.1 3.6 22.0 26.0 41.6 109.3 106.6 368.1
Ceduna 05 12:10 21 58 10.62 12.4 37 46 1010.5 0 23.5 26.9 43.9 115.5 114.6 396.1
Clare 05 12:10 16 100 13.62 16 19 22 1002.9 12.2 30.3 33.4 59.5 157.2 164.6 570.0
Cleve 05 09:00 18.4 81 12.74 15.2 19 1003.3 0.4 28.2 31.0 53.8 142.1 146.8 508.4
CLEVE AWS 05 12:10 22.1 45 8.78 9.6 41 54 1003.8 0 19.6 23.6 36.2 95.0 90.0 310.1
Coober Pedy Airport 05 12:10 24.7 67 15.16 18.2 37 46 1008.2 0 32.9 33.0 59.9 158.2 168.4 584.4
Coonawarra 05 12:10 18 66 10.14 11.7 24 30 995.7 0.6 22.7 26.5 42.9 113.1 111.4 384.7
Cultana (Defence) 05 12:10 19.3 83 13.77 16.3 33 39 1013.1 3.8 30.3 32.8 58.2 153.7 160.9 557.6
Cummins Airport 05 12:10 21.5 52 9.8 11.2 43 57 1004.5 0 21.8 25.3 40.2 105.8 103.1 355.8
Edinburgh 05 12:10 20.3 60 10.55 12.3 39 43 1002.8 0 23.4 26.7 43.6 114.9 114.0 394.0
Edithburgh 05 12:10 20.7 55 9.9 11.3 37 48 1013.1 0.2 22.0 25.9 41.4 108.7 106.1 366.3
Elliston 05 09:00 18.2 83 12.9 15.3 19 1006.9 1 28.6 31.5 54.9 144.8 149.9 519.1
Ernabella/Pukatja 05 12:10 32.5 32 11.1 13.7 15 20 1007.9 0 23.9 24.3 39.6 104.2 104.3 361.3
Eudunda 05 09:00 18.6 85 13.53 16 24 1004.1 1 29.9 32.3 57.2 151.0 157.8 546.8
Gluepot 05 09:00 25.7 20 4.79 1.6 15 1013.1 0 11.1 17.8 22.2 57.6 44.6 151.1
Hawker 05 09:00 25 48 11.05 13.2 19 1004.1 0 24.2 26.1 43.1 113.4 113.6 393.0
Hindmarsh Island 05 12:10 18.7 63 10.09 11.5 46 63 999.5 1 22.5 26.3 42.5 112.0 110.1 380.2
Kadina 05 12:10 19.7 66 11.21 13.2 37 43 1004.4 0 24.9 28.0 46.7 123.0 123.7 427.8
Keith 05 09:00 24.5 16 3.58 -2.5 19 1000.4 0 8.7 16.2 18.7 48.2 33.2 110.7
KEITH AWS 05 12:10 18 96 14.74 17.3 44 57 1013.1 3 32.5 35.1 63.7 168.1 178.3 617.8
Kimba 05 09:00 17.2 90 13.18 15.5 0 1013.1 0 29.2 32.6 57.2 150.8 156.7 542.6
Kingscote 05 12:10 22.6 48 9.64 11 35 46 1000.3 0 21.4 24.6 38.9 102.3 99.3 343.0
Kuitpo 05 12:10 15 91 11.67 13.5 17 22 1000.2 7.4 26.1 30.2 51.3 135.4 137.6 475.8
Kyancutta 05 09:00 19.3 74 12.27 14.7 17 1005.9 0.7 27.1 30.0 51.4 135.5 138.9 480.7
Lameroo Aws 05 12:10 21.3 60 11.18 13.4 30 35 1013.1 0.8 24.7 27.8 46.0 121.2 121.6 420.6
Leigh Creek 05 12:10 25 58 13.35 16.2 32 39 1007.8 0 29.0 29.9 52.1 137.6 143.2 496.5
Loxton 05 12:10 19.9 86 14.77 17.6 24 28 1001.8 1.8 32.5 33.9 61.6 162.8 172.8 599.2
Marree Airport 05 12:10 30.1 41 12.5 15.4 54 70 1007.3 0 26.9 26.9 45.7 120.6 123.8 429.3
Meningie 05 09:00 21.5 100 18.86 21.5 998.4 0.4 41.1 40.8 79.2 209.7 231.0 801.9
Minlaton Airport 05 12:10 20.7 62 11.16 13.2 41 48 1003.2 0.2 24.7 27.6 45.8 120.8 121.3 419.7
Minnipa Rs 05 12:10 21.9 43 8.3 8.8 44 54 1007.3 0 18.6 23.0 34.7 91.0 84.8 292.0
Moomba Airport 05 12:10 44.2 10 6.29 5.8 52 61 1001.6 0 13.6 16.0 21.3 55.7 47.5 163.2
Mount Barker 05 09:00 19.7 88 14.94 17.6 22 1013.1 1 32.8 34.8 63.2 166.8 177.2 614.5
Mount Gambier 05 12:10 18.2 69 10.72 12.4 33 44 994.9 0.2 23.9 27.3 45.1 118.9 118.6 410.0
Mount Lofty 05 12:10 12.1 99 10.62 11.9 19 30 1013.1 0.8 24.0 29.9 49.3 129.7 128.9 444.9
MT CRAWFORD AWS 05 12:10 14.7 96 12.09 14.1 39 50 1000.3 5.8 27.1 31.0 53.4 140.9 144.3 499.0
Murray Bridge 05 09:00 24.3 48 10.62 12.7 30 1013.1 0 23.3 26.0 42.2 111.1 110.1 380.8
MURRAY BRIDGE AP 05 12:10 21 54 9.89 11.3 39 48 1000.5 0 22.0 25.4 40.6 106.9 104.5 360.8
Naracoorte 05 12:10 17.6 70 10.5 12.1 33 43 996.4 0.4 23.5 27.2 44.6 117.6 116.8 403.4
Noarlunga 05 12:10 18 78 11.98 14.1 19 26 1013.1 5.4 26.6 30.2 51.4 135.4 137.9 477.3
Nullarbor 05 12:10 21.3 58 10.81 12.7 35 44 1012.7 0 23.9 27.2 44.6 117.2 116.8 403.8
NURIOOTPA AWS 05 12:10 17.3 93 13.7 16.2 30 35 1001.9 1.4 30.4 33.0 58.8 155.4 162.8 564.0
Oodnadatta 05 12:10 34.8 32 12.53 15.7 52 59 1007.6 0 26.7 25.6 43.3 114.2 117.1 406.4
Padthaway 05 12:10 16.9 82 11.79 13.8 20 24 1013.1 0.2 26.2 30.2 51.3 135.1 137.3 474.7
Parafield 05 12:10 20.3 62 10.9 12.8 32 35 1002.7 0 24.2 27.3 45.0 118.6 118.5 409.8
Parawa West 05 12:10 15.3 84 10.97 12.6 20 24 1013.1 0.6 24.6 29.4 48.8 128.4 128.5 443.9
Parndana 05 12:10 19.9 48 8.25 8.8 43 50 1013.1 0 18.6 23.7 35.6 93.3 86.8 298.6
Point Avoid 05 12:10 19.9 76 13.06 15.5 35 43 1013.1 0 28.8 31.4 54.7 144.2 149.5 518.0
Port Augusta 05 12:10 20.8 87 15.75 18.6 28 32 1004.7 7.6 34.5 35.5 65.5 173.1 185.6 643.8
Port Lincoln Airport 05 12:10 22.4 48 9.53 10.9 52 59 1003.4 0 21.2 24.6 38.7 101.8 98.5 340.1
Port Pirie Airport Aws 05 12:10 20.4 85 15.04 17.8 28 30 1004.6 5.8 33.0 34.3 62.6 165.3 176.0 610.3
Renmark Airport 05 12:10 19.9 88 15.12 17.9 20 24 1002.4 2.6 33.2 34.6 63.2 167.1 178.1 617.5
Robe Airport 05 12:00 16.5 100 14.04 16.5 26 39 996.9 1.8 31.2 33.8 60.7 160.5 169.1 585.7
Roseworthy 05 12:10 19.5 82 13.76 16.3 41 48 1002.4 1.2 30.3 32.3 57.4 151.7 159.1 551.2
Roxby Downs 05 12:10 26.7 56 14.18 17.2 39 46 1007.1 0 30.7 30.6 54.3 143.4 150.8 523.4
Snowtown 05 12:10 18.5 84 13.29 15.7 39 46 1003.5 16.4 29.4 31.9 56.2 148.3 154.5 535.2
STENHOUSE BAY 05 12:10 20.3 56 9.85 11.2 41 52 1013.1 0 21.9 26.0 41.4 108.8 106.0 366.0
Strathalbyn 05 12:10 18.4 67 10.54 12.2 56 67 999 4.8 23.5 27.1 44.5 117.2 116.3 402.0
Streaky Bay 05 09:00 18 84 12.9 15.3 13 1007.9 0.6 28.6 31.6 55.1 145.3 150.4 520.8
Tarcoola 05 12:10 21.2 61 11.3 13.4 28 33 1009.7 2 24.9 27.9 46.4 122.2 123.0 425.5
Victor Harbor 05 09:00 20.9 82 14.93 17.8 11 1013.1 0 32.7 34.3 62.2 164.1 174.3 604.4
Whyalla 05 12:10 20.4 75 13.27 15.8 22 26 1005.3 1.4 29.2 31.2 54.8 144.7 150.6 521.8
Woomera 05 12:10 19.7 92 15.62 18.4 44 52 1006.7 0.2 34.3 35.8 65.9 174.3 186.6 647.3
Wudinna Airport 05 12:10 23.5 40 8.46 9.1 48 59 1007 0 18.8 22.9 34.5 90.6 84.9 292.6
Yongala 05 09:00 17.7 74 11.16 13 7 1013.1 0.4 24.8 28.9 48.1 126.6 127.1 439.5
Yunta 05 12:10 19.9 80 13.74 16.3 44 48 1013.1 0.6 30.2 32.6 57.6 152.1 159.2 551.7

Last Refresh: 05-Dec-2020 12:25:24

The information presented on this site is sourced from the Bureau of Meteorology.  Copyright in all material sourced from the Bureau of Meteorology resides with the Commonwealth of Australia.